Time;durP1;ratioP1;P1;durP2;ratioP2;P2;SDS_P1;SDS_P2;PMS_P1;PMS_P2;Temp;Humidity;BMP_temperature;BMP_pressure;BME280_temperature;BME280_humidity;BME280_pressure;Samples;Min_cycle;Max_cycle;Signal;HPM_P1;HPM_P2
2023/07/04 00:02:32;;;;;;;;;;;21.90;53.70;;;;;;10327716;28;94359;-61
2023/07/04 00:07:34;;;;;;;;;;;21.90;53.70;;;;;;10325394;28;95884;-61
2023/07/04 00:12:35;;;;;;;;;;;21.90;53.70;;;;;;10327786;28;93547;-61
2023/07/04 00:17:42;;;;;;;;;;;21.90;53.70;;;;;;10327839;28;93895;-61
2023/07/04 00:22:44;;;;;;;;;;;21.90;53.70;;;;;;10327893;28;93348;-61
2023/07/04 00:27:46;;;;;;;;;;;21.90;53.80;;;;;;10327940;28;93442;-61
2023/07/04 00:32:48;;;;;;;;;;;21.90;53.80;;;;;;10326238;28;93058;-61
2023/07/04 00:37:50;;;;;;;;;;;21.80;53.70;;;;;;10326668;28;94206;-61
2023/07/04 00:42:55;;;;;;;;;;;21.80;53.70;;;;;;10333425;28;94033;-61
2023/07/04 00:48:03;;;;;;;;;;;21.80;53.80;;;;;;10333110;28;94506;-61
2023/07/04 00:53:06;;;;;;;;;;;21.80;53.80;;;;;;10333505;28;93430;-61
2023/07/04 00:58:09;;;;;;;;;;;21.80;53.80;;;;;;10331012;28;95536;-61
2023/07/04 01:03:18;;;;;;;;;;;21.80;53.70;;;;;;10333534;28;94483;-61
2023/07/04 01:08:28;;;;;;;;;;;21.80;53.80;;;;;;10333839;28;94492;-61
2023/07/04 01:13:34;;;;;;;;;;;21.80;53.80;;;;;;10333758;28;93449;-62
2023/07/04 01:18:37;;;;;;;;;;;21.70;53.90;;;;;;10333266;28;94816;-61
2023/07/04 01:23:39;;;;;;;;;;;21.70;53.80;;;;;;10315039;28;93884;-61
2023/07/04 01:28:41;;;;;;;;;;;21.70;53.80;;;;;;10332437;28;93811;-60
2023/07/04 01:33:44;;;;;;;;;;;21.70;53.80;;;;;;10333343;28;93750;-61
2023/07/04 01:38:46;;;;;;;;;;;21.80;54.00;;;;;;10331950;28;94636;-61
2023/07/04 01:43:52;;;;;;;;;;;21.70;53.90;;;;;;10332592;28;94933;-64
2023/07/04 01:48:55;;;;;;;;;;;21.70;53.90;;;;;;10329520;28;97021;-61
2023/07/04 01:53:57;;;;;;;;;;;21.70;53.90;;;;;;10331933;28;94585;-61
2023/07/04 01:58:59;;;;;;;;;;;21.70;53.90;;;;;;10331609;28;94976;-61
2023/07/04 02:04:01;;;;;;;;;;;21.70;53.90;;;;;;10331528;28;94052;-61
2023/07/04 02:09:03;;;;;;;;;;;21.70;53.90;;;;;;10332337;28;93517;-61
2023/07/04 02:14:05;;;;;;;;;;;21.80;54.00;;;;;;10331685;28;94500;-61
2023/07/04 02:19:07;;;;;;;;;;;21.70;53.90;;;;;;10332466;28;93533;-61
2023/07/04 02:24:09;;;;;;;;;;;21.80;53.90;;;;;;10297605;28;92814;-61
2023/07/04 02:29:11;;;;;;;;;;;21.70;53.90;;;;;;10330023;28;93570;-61
2023/07/04 02:34:12;;;;;;;;;;;21.70;53.90;;;;;;10313061;28;94520;-61
2023/07/04 02:39:14;;;;;;;;;;;21.70;53.90;;;;;;10328087;28;96954;-61
2023/07/04 02:44:16;;;;;;;;;;;21.70;53.90;;;;;;10330280;28;94061;-61
2023/07/04 02:49:17;;;;;;;;;;;21.70;53.90;;;;;;10328972;28;94948;-61
2023/07/04 02:54:20;;;;;;;;;;;21.70;53.90;;;;;;10330031;28;94471;-61
2023/07/04 02:59:22;;;;;;;;;;;21.80;53.90;;;;;;10329615;28;92452;-60
2023/07/04 03:04:23;;;;;;;;;;;21.70;53.90;;;;;;10310732;28;94496;-61
2023/07/04 03:09:25;;;;;;;;;;;21.70;53.90;;;;;;10330638;28;93188;-61
2023/07/04 03:14:27;;;;;;;;;;;21.70;53.90;;;;;;10330269;28;92853;-61
2023/07/04 03:19:29;;;;;;;;;;;21.70;54.00;;;;;;10328344;28;92524;-61
2023/07/04 03:24:31;;;;;;;;;;;21.70;53.90;;;;;;10329217;28;93324;-61
2023/07/04 03:29:32;;;;;;;;;;;21.70;54.00;;;;;;10307930;28;94950;-60
2023/07/04 03:34:34;;;;;;;;;;;21.70;53.90;;;;;;10329109;28;94650;-61
2023/07/04 03:39:36;;;;;;;;;;;21.70;54.00;;;;;;10329026;28;94465;-67
2023/07/04 03:44:38;;;;;;;;;;;21.70;53.90;;;;;;10328752;28;96573;-66
2023/07/04 03:49:39;;;;;;;;;;;21.60;53.80;;;;;;10328679;28;94461;-67
2023/07/04 03:54:41;;;;;;;;;;;21.70;53.90;;;;;;10327934;28;93512;-66
2023/07/04 03:59:43;;;;;;;;;;;21.60;53.90;;;;;;10310172;28;94471;-66
2023/07/04 04:04:46;;;;;;;;;;;21.60;54.00;;;;;;10328529;28;94149;-66
2023/07/04 04:09:48;;;;;;;;;;;21.60;53.90;;;;;;10328203;28;92830;-66
2023/07/04 04:14:50;;;;;;;;;;;21.60;53.90;;;;;;10313100;28;93524;-66
2023/07/04 04:19:52;;;;;;;;;;;21.60;54.00;;;;;;10332794;28;95902;-66
2023/07/04 04:24:54;;;;;;;;;;;21.60;54.00;;;;;;10334140;28;94639;-67
2023/07/04 04:29:56;;;;;;;;;;;21.50;53.90;;;;;;10334751;28;93530;-66
2023/07/04 04:34:57;;;;;;;;;;;21.60;54.00;;;;;;10316638;28;93611;-67
2023/07/04 04:39:59;;;;;;;;;;;21.60;54.00;;;;;;10315430;28;93743;-66
2023/07/04 04:45:02;;;;;;;;;;;21.50;53.90;;;;;;10335418;28;93299;-66
2023/07/04 04:50:04;;;;;;;;;;;21.60;53.90;;;;;;10731729;22;94612;-67
2023/07/04 04:55:07;;;;;;;;;;;21.50;53.90;;;;;;10333945;28;92923;-67
2023/07/04 05:00:10;;;;;;;;;;;21.60;54.00;;;;;;10332823;28;94505;-61
2023/07/04 05:05:12;;;;;;;;;;;21.50;53.90;;;;;;10332876;28;93501;-61
2023/07/04 05:10:15;;;;;;;;;;;21.50;53.90;;;;;;10312408;28;95677;-61
2023/07/04 05:15:17;;;;;;;;;;;21.60;53.90;;;;;;10332329;28;93382;-61
2023/07/04 05:20:23;;;;;;;;;;;21.60;54.00;;;;;;10332279;28;93620;-62
2023/07/04 05:25:25;;;;;;;;;;;21.60;53.90;;;;;;10312707;28;93304;-61
2023/07/04 05:30:27;;;;;;;;;;;21.60;53.90;;;;;;10300803;28;93853;-61
2023/07/04 05:35:28;;;;;;;;;;;21.60;54.00;;;;;;10290341;28;93583;-60
2023/07/04 05:40:30;;;;;;;;;;;21.60;54.90;;;;;;10290053;28;94497;-61
2023/07/04 05:45:32;;;;;;;;;;;21.60;56.00;;;;;;10289581;28;92750;-61
2023/07/04 05:50:33;;;;;;;;;;;21.60;55.30;;;;;;10287719;28;94480;-61
2023/07/04 05:55:35;;;;;;;;;;;21.60;55.20;;;;;;10289262;28;94066;-60
2023/07/04 06:00:37;;;;;;;;;;;21.60;55.10;;;;;;10286801;28;96896;-61
2023/07/04 06:05:39;;;;;;;;;;;21.70;55.40;;;;;;10289918;28;94616;-61
2023/07/04 06:10:41;;;;;;;;;;;21.60;55.80;;;;;;10289466;28;94242;-60
2023/07/04 06:15:42;;;;;;;;;;;21.70;57.70;;;;;;10272639;28;94735;-60
2023/07/04 06:20:44;;;;;;;;;;;21.70;58.00;;;;;;10289513;28;94554;-60
2023/07/04 06:25:46;;;;;;;;;;;21.70;57.00;;;;;;10288242;28;94275;-60
2023/07/04 06:30:48;;;;;;;;;;;21.70;57.20;;;;;;10288209;28;94809;-61
2023/07/04 06:35:50;;;;;;;;;;;21.70;57.00;;;;;;10288360;28;92959;-60
2023/07/04 06:40:56;;;;;;;;;;;21.70;58.10;;;;;;10287228;28;93536;-60
2023/07/04 06:45:57;;;;;;;;;;;21.70;60.90;;;;;;10288875;28;94821;-60
2023/07/04 06:51:12;;;;;;;;;;;21.70;60.30;;;;;;10283587;28;95908;-60
2023/07/04 06:56:18;;;;;;;;;;;21.70;60.00;;;;;;10287392;28;94594;-60
2023/07/04 07:01:22;;;;;;;;;;;21.60;59.50;;;;;;10287010;28;94521;-60
2023/07/04 07:06:25;;;;;;;;;;;21.70;59.70;;;;;;10292523;28;94414;-68
2023/07/04 07:11:27;;;;;;;;;;;21.70;58.70;;;;;;10287087;28;93350;-60
2023/07/04 07:16:29;;;;;;;;;;;21.70;59.30;;;;;;10287012;28;93532;-66
2023/07/04 07:21:31;;;;;;;;;;;21.70;58.50;;;;;;10269108;28;94913;-66
2023/07/04 07:26:33;;;;;;;;;;;21.70;58.00;;;;;;10287761;28;93792;-66
2023/07/04 07:31:35;;;;;;;;;;;21.80;58.10;;;;;;10286411;28;94144;-67
2023/07/04 07:36:39;;;;;;;;;;;21.70;58.00;;;;;;10285629;28;94959;-66
2023/07/04 07:41:45;;;;;;;;;;;21.70;57.80;;;;;;10265318;28;96912;-66
2023/07/04 07:46:47;;;;;;;;;;;21.70;57.70;;;;;;10284938;28;96008;-66
2023/07/04 07:51:49;;;;;;;;;;;21.70;57.70;;;;;;10285819;28;94477;-66
2023/07/04 07:56:50;;;;;;;;;;;21.60;57.70;;;;;;10285959;28;93662;-66
2023/07/04 08:01:53;;;;;;;;;;;21.60;57.70;;;;;;10286365;28;93447;-66
2023/07/04 08:06:54;;;;;;;;;;;21.60;57.60;;;;;;10268054;28;94490;-66
2023/07/04 08:11:56;;;;;;;;;;;21.60;57.30;;;;;;10268946;28;94104;-66
2023/07/04 08:16:58;;;;;;;;;;;21.60;57.40;;;;;;10286520;28;92995;-66
2023/07/04 08:22:00;;;;;;;;;;;21.60;57.40;;;;;;10285921;28;94413;-67
2023/07/04 08:27:04;;;;;;;;;;;21.60;57.30;;;;;;10285898;28;94903;-66
2023/07/04 08:32:06;;;;;;;;;;;21.60;57.10;;;;;;10284006;28;96577;-66
2023/07/04 08:37:09;;;;;;;;;;;21.60;57.00;;;;;;10285219;28;93479;-66
2023/07/04 08:42:12;;;;;;;;;;;21.60;57.00;;;;;;10285548;28;94539;-66
2023/07/04 08:47:15;;;;;;;;;;;21.70;56.90;;;;;;10284277;28;93518;-66
2023/07/04 08:52:23;;;;;;;;;;;21.70;56.80;;;;;;10285922;28;94745;-67
2023/07/04 08:57:28;;;;;;;;;;;21.70;56.80;;;;;;10284615;28;94580;-66
2023/07/04 09:02:35;;;;;;;;;;;21.70;56.60;;;;;;10287331;28;94005;-66
2023/07/04 09:07:52;;;;;;;;;;;21.80;56.60;;;;;;10292836;28;94076;-61
2023/07/04 09:12:54;;;;;;;;;;;21.80;56.50;;;;;;10291291;28;93580;-61
2023/07/04 09:18:00;;;;;;;;;;;21.80;56.40;;;;;;10291947;28;94530;-61
2023/07/04 09:23:23;;;;;;;;;;;21.80;56.40;;;;;;10274535;28;98800;-61
2023/07/04 09:28:25;;;;;;;;;;;21.80;56.30;;;;;;10273684;28;93758;-66
2023/07/04 09:33:27;;;;;;;;;;;21.80;56.30;;;;;;10289921;28;93547;-66
2023/07/04 09:38:50;;;;;;;;;;;21.70;56.10;;;;;;10290162;28;93487;-66
2023/07/04 09:43:55;;;;;;;;;;;21.70;56.20;;;;;;10290771;28;94435;-66
2023/07/04 09:49:15;;;;;;;;;;;21.70;56.30;;;;;;10289905;28;94975;-66
2023/07/04 09:54:18;;;;;;;;;;;21.70;57.30;;;;;;10290186;28;94307;-66
2023/07/04 09:59:26;;;;;;;;;;;21.70;56.30;;;;;;10291690;28;93946;-66
2023/07/04 10:04:40;;;;;;;;;;;21.70;56.30;;;;;;10271196;28;93596;-67
2023/07/04 10:09:48;;;;;;;;;;;21.70;56.20;;;;;;10290484;28;94636;-67
2023/07/04 10:14:52;;;;;;;;;;;21.70;56.20;;;;;;10286821;28;96998;-66
2023/07/04 10:20:00;;;;;;;;;;;21.70;56.10;;;;;;10289038;28;94716;-65
2023/07/04 10:25:04;;;;;;;;;;;21.70;56.10;;;;;;10272209;28;93431;-66
2023/07/04 10:30:11;;;;;;;;;;;21.70;56.10;;;;;;10290320;28;94916;-66
2023/07/04 10:35:19;;;;;;;;;;;21.70;55.90;;;;;;10288220;28;94849;-66
2023/07/04 10:40:21;;;;;;;;;;;21.70;56.00;;;;;;10272205;28;94277;-66
2023/07/04 10:45:25;;;;;;;;;;;21.70;56.00;;;;;;10288546;28;94545;-66
2023/07/04 10:50:36;;;;;;;;;;;21.70;55.90;;;;;;10288366;28;92889;-65
2023/07/04 10:55:43;;;;;;;;;;;21.70;55.80;;;;;;10287887;28;93538;-66
2023/07/04 11:00:48;;;;;;;;;;;21.70;55.80;;;;;;10270937;28;94599;-62
2023/07/04 11:05:52;;;;;;;;;;;21.70;55.70;;;;;;10285567;28;97489;-66
2023/07/04 11:10:58;;;;;;;;;;;21.70;55.70;;;;;;10287249;28;93689;-61
2023/07/04 11:16:03;;;;;;;;;;;21.70;55.60;;;;;;10287537;28;93604;-61
2023/07/04 11:21:13;;;;;;;;;;;21.70;55.70;;;;;;10287990;28;94473;-61
2023/07/04 11:26:16;;;;;;;;;;;21.70;55.60;;;;;;10286685;28;94760;-61
2023/07/04 11:31:27;;;;;;;;;;;21.70;55.70;;;;;;10286664;28;93952;-62
2023/07/04 11:36:35;;;;;;;;;;;21.70;55.60;;;;;;10287137;28;94700;-61
2023/07/04 11:41:41;;;;;;;;;;;21.70;55.60;;;;;;10288022;28;93925;-61
2023/07/04 11:46:42;;;;;;;;;;;21.80;55.60;;;;;;10287435;28;94637;-61
2023/07/04 11:51:45;;;;;;;;;;;21.80;55.50;;;;;;10268215;28;94442;-61
2023/07/04 11:56:47;;;;;;;;;;;21.80;55.40;;;;;;10283433;28;97328;-61
2023/07/04 12:01:51;;;;;;;;;;;21.80;55.40;;;;;;10285904;28;94643;-61
2023/07/04 12:06:57;;;;;;;;;;;21.80;55.40;;;;;;10286799;28;94495;-61
2023/07/04 12:12:00;;;;;;;;;;;21.80;55.40;;;;;;10268838;28;94483;-61
2023/07/04 12:17:01;;;;;;;;;;;21.80;55.30;;;;;;10285824;28;94185;-61
2023/07/04 12:22:03;;;;;;;;;;;21.80;55.30;;;;;;10284907;28;92443;-61
2023/07/04 12:27:06;;;;;;;;;;;21.80;55.20;;;;;;10268781;28;94600;-62
2023/07/04 12:32:12;;;;;;;;;;;21.80;55.30;;;;;;10286412;28;93471;-61
2023/07/04 12:37:16;;;;;;;;;;;21.80;55.20;;;;;;10272075;28;94598;-61
2023/07/04 12:42:25;;;;;;;;;;;21.80;55.30;;;;;;10275682;28;93696;-61
2023/07/04 12:47:31;;;;;;;;;;;21.80;55.20;;;;;;10289447;28;95663;-61
2023/07/04 12:52:36;;;;;;;;;;;21.80;55.20;;;;;;10292283;28;93614;-66
2023/07/04 12:57:38;;;;;;;;;;;21.80;55.20;;;;;;10292428;28;94532;-66
2023/07/04 13:02:44;;;;;;;;;;;21.80;55.30;;;;;;10275302;28;94582;-66
2023/07/04 13:07:48;;;;;;;;;;;21.80;55.30;;;;;;10291822;28;93529;-66
2023/07/04 13:12:50;;;;;;;;;;;21.80;55.40;;;;;;10292898;28;94561;-66
2023/07/04 13:18:00;;;;;;;;;;;21.80;55.30;;;;;;10290661;28;93493;-66
2023/07/04 13:23:21;;;;;;;;;;;21.80;55.30;;;;;;10292228;28;93728;-66
2023/07/04 13:28:28;;;;;;;;;;;21.80;55.20;;;;;;10291368;28;94239;-65
2023/07/04 13:33:33;;;;;;;;;;;21.80;55.20;;;;;;10291026;28;94113;-65
2023/07/04 13:38:35;;;;;;;;;;;21.80;55.20;;;;;;10270341;28;94984;-66
2023/07/04 13:43:40;;;;;;;;;;;21.80;55.20;;;;;;10290917;28;92578;-66
2023/07/04 13:48:45;;;;;;;;;;;21.80;55.10;;;;;;10272694;28;94172;-66
2023/07/04 13:53:47;;;;;;;;;;;21.80;55.00;;;;;;10290258;28;94444;-66
2023/07/04 13:58:49;;;;;;;;;;;21.80;55.10;;;;;;10272047;28;93964;-66
2023/07/04 14:03:51;;;;;;;;;;;21.80;55.00;;;;;;10290322;28;93548;-66
2023/07/04 14:08:57;;;;;;;;;;;21.80;55.20;;;;;;10289167;28;94152;-65
2023/07/04 14:13:58;;;;;;;;;;;21.80;55.00;;;;;;10290335;28;92895;-66
2023/07/04 14:19:06;;;;;;;;;;;21.80;54.80;;;;;;10289172;28;93852;-66
2023/07/04 14:24:10;;;;;;;;;;;21.80;54.80;;;;;;10289862;28;94091;-66
2023/07/04 14:29:12;;;;;;;;;;;21.70;54.90;;;;;;10286833;28;95998;-66
2023/07/04 14:34:14;;;;;;;;;;;21.80;55.10;;;;;;10289591;28;93325;-62
2023/07/04 14:39:15;;;;;;;;;;;21.80;55.00;;;;;;10288729;28;93581;-61
2023/07/04 14:44:17;;;;;;;;;;;21.80;55.00;;;;;;10289332;28;94429;-61
2023/07/04 14:49:18;;;;;;;;;;;21.80;55.00;;;;;;10287153;28;95051;-61
2023/07/04 14:54:21;;;;;;;;;;;21.80;55.00;;;;;;10288592;28;93951;-61
2023/07/04 14:59:22;;;;;;;;;;;21.80;54.90;;;;;;10286791;28;94730;-61
2023/07/04 15:04:24;;;;;;;;;;;21.80;54.90;;;;;;10288344;28;94081;-61
2023/07/04 15:09:28;;;;;;;;;;;21.80;55.00;;;;;;10287776;28;93877;-61
2023/07/04 15:14:29;;;;;;;;;;;21.80;54.90;;;;;;10269539;28;93558;-61
2023/07/04 15:19:31;;;;;;;;;;;21.80;54.80;;;;;;10268692;28;97066;-61
2023/07/04 15:24:33;;;;;;;;;;;21.80;54.70;;;;;;10287339;28;93804;-61
2023/07/04 15:29:35;;;;;;;;;;;21.90;54.80;;;;;;10285927;28;92677;-61
2023/07/04 15:34:38;;;;;;;;;;;21.90;54.80;;;;;;10287671;28;93457;-61
2023/07/04 15:39:40;;;;;;;;;;;21.90;54.70;;;;;;10269996;28;94663;-61
2023/07/04 15:44:42;;;;;;;;;;;21.90;54.70;;;;;;10286524;28;93495;-61
2023/07/04 15:49:44;;;;;;;;;;;21.90;54.60;;;;;;10285755;28;93503;-61
2023/07/04 15:54:45;;;;;;;;;;;21.90;54.60;;;;;;10285680;28;92762;-61
2023/07/04 15:59:47;;;;;;;;;;;21.90;54.60;;;;;;10269136;28;94750;-62
2023/07/04 16:04:49;;;;;;;;;;;21.90;54.50;;;;;;10268258;28;94517;-61
2023/07/04 16:09:51;;;;;;;;;;;21.90;54.50;;;;;;10284205;28;96542;-61
2023/07/04 16:14:53;;;;;;;;;;;21.90;54.50;;;;;;10294295;28;94417;-61
2023/07/04 16:19:55;;;;;;;;;;;21.90;54.60;;;;;;10292712;28;94635;-61
2023/07/04 16:24:57;;;;;;;;;;;21.90;54.50;;;;;;10275587;28;94411;-61
2023/07/04 16:29:58;;;;;;;;;;;21.80;54.40;;;;;;10292538;28;93710;-62
2023/07/04 16:35:02;;;;;;;;;;;21.90;54.30;;;;;;10292531;28;94445;-61
2023/07/04 16:40:04;;;;;;;;;;;21.90;54.40;;;;;;10292690;28;94871;-61
2023/07/04 16:45:06;;;;;;;;;;;21.80;54.40;;;;;;10293019;28;94333;-61
2023/07/04 16:50:08;;;;;;;;;;;21.90;54.40;;;;;;10291346;28;92629;-61
2023/07/04 16:55:31;;;;;;;;;;;21.80;54.40;;;;;;10277262;28;95972;-61
2023/07/04 17:00:33;;;;;;;;;;;21.80;54.40;;;;;;10289164;28;95944;-61
2023/07/04 17:05:38;;;;;;;;;;;21.80;54.40;;;;;;10291520;28;93614;-61
2023/07/04 17:10:44;;;;;;;;;;;21.80;54.40;;;;;;10273638;28;93713;-62
2023/07/04 17:15:50;;;;;;;;;;;21.80;54.50;;;;;;10292071;28;94375;-61
2023/07/04 17:20:53;;;;;;;;;;;21.80;54.40;;;;;;10289462;28;93184;-62
2023/07/04 17:25:55;;;;;;;;;;;21.80;54.50;;;;;;10290484;28;94023;-61
2023/07/04 17:30:58;;;;;;;;;;;21.80;54.50;;;;;;10290956;28;94251;-62
2023/07/04 17:36:00;;;;;;;;;;;21.80;54.50;;;;;;10291698;28;94080;-61
2023/07/04 17:41:07;;;;;;;;;;;21.80;54.50;;;;;;10290221;28;93500;-62
2023/07/04 17:46:10;;;;;;;;;;;21.80;54.60;;;;;;10290525;28;94634;-61
2023/07/04 17:51:13;;;;;;;;;;;21.70;54.60;;;;;;10286001;28;97048;-61
2023/07/04 17:56:19;;;;;;;;;;;21.70;54.50;;;;;;10289988;28;93730;-62
2023/07/04 18:01:22;;;;;;;;;;;21.80;54.50;;;;;;10289676;28;94506;-61
2023/07/04 18:06:26;;;;;;;;;;;21.70;54.40;;;;;;10289751;28;95192;-61
2023/07/04 18:11:28;;;;;;;;;;;21.80;54.50;;;;;;10289733;28;93526;-61
2023/07/04 18:16:30;;;;;;;;;;;21.70;54.40;;;;;;10290353;28;93901;-62
2023/07/04 18:21:32;;;;;;;;;;;21.70;54.50;;;;;;10288650;28;93655;-62
2023/07/04 18:26:34;;;;;;;;;;;21.70;55.50;;;;;;10270955;28;92783;-62
2023/07/04 18:31:36;;;;;;;;;;;21.70;54.50;;;;;;10288799;28;94885;-62
2023/07/04 18:36:37;;;;;;;;;;;21.70;54.40;;;;;;10288671;28;94454;-61
2023/07/04 18:41:39;;;;;;;;;;;21.70;54.40;;;;;;10286481;28;97027;-62
2023/07/04 18:46:43;;;;;;;;;;;21.70;54.40;;;;;;10288985;28;92878;-62
2023/07/04 18:51:45;;;;;;;;;;;21.70;54.40;;;;;;10269998;28;94500;-62
2023/07/04 18:56:48;;;;;;;;;;;21.70;54.40;;;;;;10288210;28;93743;-62
2023/07/04 19:01:50;;;;;;;;;;;21.70;54.40;;;;;;10289284;28;94572;-62
2023/07/04 19:06:53;;;;;;;;;;;21.70;54.50;;;;;;10287719;28;93576;-61
2023/07/04 19:11:55;;;;;;;;;;;21.70;54.40;;;;;;10287959;28;95153;-61
2023/07/04 19:16:57;;;;;;;;;;;21.70;54.40;;;;;;10287783;28;92056;-62
2023/07/04 19:22:01;;;;;;;;;;;21.70;54.40;;;;;;10287484;28;94475;-62
2023/07/04 19:27:03;;;;;;;;;;;21.70;54.50;;;;;;10286857;28;93699;-61
2023/07/04 19:32:05;;;;;;;;;;;21.70;54.50;;;;;;10284437;28;96112;-61
2023/07/04 19:37:08;;;;;;;;;;;21.70;54.60;;;;;;10286708;28;94476;-62
2023/07/04 19:42:11;;;;;;;;;;;21.70;54.60;;;;;;10268954;28;95001;-62
2023/07/04 19:47:14;;;;;;;;;;;21.70;54.80;;;;;;10285902;28;94647;-62
2023/07/04 19:52:16;;;;;;;;;;;21.60;54.70;;;;;;10286866;28;97035;-62
2023/07/04 19:57:19;;;;;;;;;;;21.60;54.80;;;;;;10286937;28;94516;-62
2023/07/04 20:02:21;;;;;;;;;;;21.60;54.80;;;;;;10287238;28;94535;-62
2023/07/04 20:07:23;;;;;;;;;;;21.60;54.90;;;;;;10287147;28;92708;-62
2023/07/04 20:12:27;;;;;;;;;;;21.60;54.80;;;;;;10285851;28;93644;-62
2023/07/04 20:17:28;;;;;;;;;;;21.60;54.90;;;;;;10285777;28;94536;-61
2023/07/04 20:22:30;;;;;;;;;;;21.60;54.90;;;;;;10283195;28;96952;-62
2023/07/04 20:27:32;;;;;;;;;;;21.60;55.00;;;;;;10285580;28;93646;-62
2023/07/04 20:32:33;;;;;;;;;;;21.60;55.10;;;;;;10286424;28;93676;-61
2023/07/04 20:37:35;;;;;;;;;;;21.60;55.10;;;;;;10285358;28;93613;-61
2023/07/04 20:42:37;;;;;;;;;;;21.60;55.10;;;;;;10285399;28;93605;-61
2023/07/04 20:47:39;;;;;;;;;;;21.60;55.30;;;;;;10267367;28;93309;-61
2023/07/04 20:52:41;;;;;;;;;;;21.60;55.30;;;;;;10284252;28;93489;-66
2023/07/04 20:57:42;;;;;;;;;;;21.60;55.30;;;;;;10269865;28;92900;-67
2023/07/04 21:02:45;;;;;;;;;;;21.60;55.40;;;;;;10292330;28;94631;-66
2023/07/04 21:07:47;;;;;;;;;;;21.60;55.40;;;;;;10291624;28;94491;-67
2023/07/04 21:12:49;;;;;;;;;;;21.60;55.50;;;;;;10289536;28;96892;-61
2023/07/04 21:17:50;;;;;;;;;;;21.60;55.40;;;;;;10290895;28;93511;-62
2023/07/04 21:22:52;;;;;;;;;;;21.60;55.50;;;;;;10273783;28;95226;-61
2023/07/04 21:27:54;;;;;;;;;;;21.60;55.60;;;;;;10290583;28;93557;-62
2023/07/04 21:32:56;;;;;;;;;;;21.60;55.50;;;;;;10290980;28;93628;-62
2023/07/04 21:37:58;;;;;;;;;;;21.60;55.60;;;;;;10256699;28;94991;-61
2023/07/04 21:43:00;;;;;;;;;;;21.60;55.60;;;;;;10290703;28;94633;-61
2023/07/04 21:48:02;;;;;;;;;;;21.60;55.70;;;;;;10290776;28;93316;-61
2023/07/04 21:53:04;;;;;;;;;;;21.60;55.60;;;;;;10289714;28;93475;-61
2023/07/04 21:58:05;;;;;;;;;;;21.60;55.60;;;;;;10289545;28;94730;-62
2023/07/04 22:03:07;;;;;;;;;;;21.60;55.60;;;;;;10288415;28;96889;-62
2023/07/04 22:08:09;;;;;;;;;;;21.60;55.70;;;;;;10272091;28;93554;-61
2023/07/04 22:13:11;;;;;;;;;;;21.60;55.70;;;;;;10288819;28;94271;-61
2023/07/04 22:18:13;;;;;;;;;;;21.60;55.70;;;;;;10290078;28;93965;-61
2023/07/04 22:23:15;;;;;;;;;;;21.60;55.70;;;;;;10289189;28;93678;-61
2023/07/04 22:28:17;;;;;;;;;;;21.60;55.70;;;;;;10288981;28;93436;-61
2023/07/04 22:33:19;;;;;;;;;;;21.60;55.70;;;;;;10288656;28;92847;-61
2023/07/04 22:38:21;;;;;;;;;;;21.60;55.70;;;;;;10288788;28;93862;-61
2023/07/04 22:43:22;;;;;;;;;;;21.60;55.80;;;;;;10287737;28;93700;-61
2023/07/04 22:48:25;;;;;;;;;;;21.60;55.80;;;;;;10288152;28;94680;-61
2023/07/04 22:53:27;;;;;;;;;;;21.60;55.80;;;;;;10285006;28;95900;-62
2023/07/04 22:58:28;;;;;;;;;;;21.60;55.80;;;;;;10287971;28;94706;-61
2023/07/04 23:03:31;;;;;;;;;;;21.60;56.00;;;;;;10287102;28;93477;-62
2023/07/04 23:08:35;;;;;;;;;;;21.60;56.00;;;;;;10287216;28;113971;-61
2023/07/04 23:13:36;;;;;;;;;;;21.60;56.10;;;;;;10288057;28;95456;-61
2023/07/04 23:18:40;;;;;;;;;;;21.50;56.10;;;;;;10287362;28;92653;-61
2023/07/04 23:23:43;;;;;;;;;;;21.50;56.20;;;;;;10268973;28;94498;-62
2023/07/04 23:28:45;;;;;;;;;;;21.50;56.20;;;;;;10287943;28;92708;-61
2023/07/04 23:33:47;;;;;;;;;;;21.50;56.30;;;;;;10269330;28;93868;-62
2023/07/04 23:38:49;;;;;;;;;;;21.50;56.30;;;;;;10286292;28;93817;-61
2023/07/04 23:43:51;;;;;;;;;;;21.50;56.40;;;;;;10284325;28;96878;-61
2023/07/04 23:48:53;;;;;;;;;;;21.50;56.40;;;;;;10268869;28;94591;-61
2023/07/04 23:53:55;;;;;;;;;;;21.50;56.40;;;;;;10285837;28;94122;-62
2023/07/04 23:58:57;;;;;;;;;;;21.50;56.30;;;;;;10268896;28;94534;-59
